createdAt,value
2023-03-06T00:00:53.937Z,100317.47
2023-03-06T00:03:21.391Z,100320.91
2023-03-06T00:05:48.231Z,100311.44
2023-03-06T00:08:15.086Z,100312.28
2023-03-06T00:10:42.038Z,100314.00
2023-03-06T00:13:14.691Z,100308.00
2023-03-06T00:15:41.748Z,100300.25
2023-03-06T00:18:08.519Z,100303.69
2023-03-06T00:20:35.881Z,100304.56
2023-03-06T00:23:05.685Z,100308.84
2023-03-06T00:25:32.391Z,100299.41
2023-03-06T00:27:59.048Z,100290.81
2023-03-06T00:30:29.494Z,100288.22
2023-03-06T00:32:56.166Z,100289.94
2023-03-06T00:35:26.120Z,100289.94
2023-03-06T00:37:52.843Z,100288.22
2023-03-06T00:40:25.781Z,100280.50
2023-03-06T00:42:52.958Z,100272.78
2023-03-06T00:45:19.692Z,100258.13
2023-03-06T00:47:46.324Z,100259.84
2023-03-06T00:50:13.536Z,100258.97
2023-03-06T00:52:43.210Z,100268.44
2023-03-06T00:55:11.135Z,100249.53
2023-03-06T00:57:38.046Z,100246.97
2023-03-06T01:00:08.890Z,100248.69
2023-03-06T01:02:35.655Z,100234.94
2023-03-06T01:05:02.672Z,100235.81
2023-03-06T01:07:29.894Z,100228.09
2023-03-06T01:09:56.549Z,100230.66
2023-03-06T01:12:23.694Z,100219.53
2023-03-06T01:14:50.585Z,100217.78
2023-03-06T01:17:17.653Z,100215.19
2023-03-06T01:19:48.336Z,100214.34
2023-03-06T01:22:14.965Z,100210.91
2023-03-06T01:24:47.833Z,100200.59
2023-03-06T01:27:14.644Z,100201.44
2023-03-06T01:29:41.319Z,100196.28
2023-03-06T01:32:08.131Z,100188.56
2023-03-06T01:34:34.797Z,100185.13
2023-03-06T01:37:10.281Z,100182.53
2023-03-06T01:39:36.903Z,100170.50
2023-03-06T01:42:10.276Z,100172.22
2023-03-06T01:44:36.983Z,100173.94
2023-03-06T01:47:03.801Z,100162.78
2023-03-06T01:49:39.834Z,100164.50
2023-03-06T01:52:10.308Z,100159.34
2023-03-06T01:55:11.814Z,100151.56
2023-03-06T01:57:48.381Z,100147.31
2023-03-06T02:00:19.032Z,100141.28
2023-03-06T02:02:50.540Z,100142.16
2023-03-06T02:05:17.464Z,100130.97
2023-03-06T02:07:46.066Z,100131.84
2023-03-06T02:10:14.742Z,100128.38
2023-03-06T02:12:46.507Z,100125.81
2023-03-06T02:15:17.001Z,100127.53
2023-03-06T02:17:45.457Z,100119.75
2023-03-06T02:20:24.302Z,100115.47
2023-03-06T02:23:05.395Z,100120.63
2023-03-06T02:25:41.343Z,100118.03
2023-03-06T02:28:13.118Z,100112.00
2023-03-06T02:30:41.165Z,100108.56
2023-03-06T02:33:07.917Z,100103.41
2023-03-06T02:35:36.458Z,100106.00
2023-03-06T02:38:09.543Z,100109.38
2023-03-06T02:40:36.800Z,100105.06
2023-03-06T02:43:04.277Z,100102.47
2023-03-06T02:45:45.343Z,100099.84
2023-03-06T02:48:18.851Z,100095.56
2023-03-06T02:50:49.434Z,100091.25
2023-03-06T02:53:20.210Z,100093.81
2023-03-06T02:55:47.720Z,100078.34
2023-03-06T02:58:15.628Z,100088.63
2023-03-06T03:00:42.215Z,100093.75
2023-03-06T03:03:14.810Z,100085.16
2023-03-06T03:05:42.309Z,100080.84
2023-03-06T03:08:09.065Z,100067.09
2023-03-06T03:10:35.788Z,100077.34
2023-03-06T03:13:02.542Z,100065.31
2023-03-06T03:15:29.327Z,100070.44
2023-03-06T03:17:55.942Z,100067.00
2023-03-06T03:20:23.014Z,100063.53
2023-03-06T03:22:55.795Z,100066.13
2023-03-06T03:25:24.894Z,100064.34
2023-03-06T03:27:58.085Z,100061.81
2023-03-06T03:30:25.861Z,100063.53
2023-03-06T03:32:58.302Z,100062.63
2023-03-06T03:35:24.971Z,100059.19
2023-03-06T03:37:52.732Z,100052.28
2023-03-06T03:40:19.434Z,100053.13
2023-03-06T03:42:46.182Z,100058.28
2023-03-06T03:45:13.206Z,100049.69
2023-03-06T03:47:49.138Z,100059.16
2023-03-06T03:50:16.411Z,100052.28
2023-03-06T03:52:43.072Z,100053.13
2023-03-06T03:55:17.301Z,100054.84
2023-03-06T03:57:55.923Z,100047.97
2023-03-06T04:00:22.747Z,100048.81
2023-03-06T04:02:50.633Z,100044.50
2023-03-06T04:05:17.226Z,100047.09
2023-03-06T04:07:44.256Z,100045.38
2023-03-06T04:10:16.196Z,100047.09
2023-03-06T04:12:49.811Z,100047.03
2023-03-06T04:15:16.559Z,100039.31
2023-03-06T04:17:44.149Z,100043.59
2023-03-06T04:20:14.802Z,100041.00
2023-03-06T04:22:47.453Z,100039.25
2023-03-06T04:25:17.451Z,100041.81
2023-03-06T04:27:50.358Z,100039.16
2023-03-06T04:30:17.268Z,100041.72
2023-03-06T04:32:53.971Z,100039.97
2023-03-06T04:35:20.793Z,100042.53
2023-03-06T04:37:47.714Z,100048.53
2023-03-06T04:40:39.279Z,100058.00
2023-03-06T04:43:08.033Z,100057.09
2023-03-06T04:45:36.437Z,100052.81
2023-03-06T04:48:13.189Z,100062.28
2023-03-06T04:50:55.891Z,100075.19
2023-03-06T04:53:26.962Z,100064.94
2023-03-06T04:55:53.612Z,100067.53
2023-03-06T04:58:26.700Z,100063.28
2023-03-06T05:00:53.329Z,100071.06
2023-03-06T05:03:20.378Z,100065.94
2023-03-06T05:05:47.010Z,100071.97
2023-03-06T05:08:19.329Z,100068.53
2023-03-06T05:10:46.504Z,100066.84
2023-03-06T05:13:16.568Z,100071.13
2023-03-06T05:15:43.226Z,100069.41
2023-03-06T05:18:17.032Z,100063.38
2023-03-06T05:20:52.825Z,100072.91
2023-03-06T05:23:20.463Z,100066.97
2023-03-06T05:25:50.571Z,100072.09
2023-03-06T05:28:24.466Z,100087.66
2023-03-06T05:30:51.087Z,100084.22
2023-03-06T05:33:20.673Z,100085.09
2023-03-06T05:35:56.898Z,100082.50
2023-03-06T05:38:40.208Z,100083.41
2023-03-06T05:41:13.494Z,100086.84
2023-03-06T05:43:43.844Z,100086.81
2023-03-06T05:46:11.917Z,100080.84
2023-03-06T05:48:39.813Z,100085.16
2023-03-06T05:51:15.815Z,100086.00
2023-03-06T05:53:46.095Z,100084.31
2023-03-06T05:56:19.709Z,100092.94
2023-03-06T05:58:49.873Z,100098.13
2023-03-06T06:01:23.195Z,100095.56
2023-03-06T06:03:51.048Z,100092.97
2023-03-06T06:06:21.398Z,100092.09
2023-03-06T06:08:58.194Z,100088.66
2023-03-06T06:11:42.983Z,100096.41
2023-03-06T06:14:09.766Z,100091.25
2023-03-06T06:16:36.459Z,100091.25
2023-03-06T06:19:03.373Z,100099.88
2023-03-06T06:21:32.701Z,100097.25
2023-03-06T06:23:59.479Z,100097.31
2023-03-06T06:26:26.080Z,100108.50
2023-03-06T06:28:52.788Z,100105.06
2023-03-06T06:31:19.622Z,100100.78
2023-03-06T06:34:00.600Z,100107.66
2023-03-06T06:36:27.188Z,100107.66
2023-03-06T06:38:53.901Z,100114.53
2023-03-06T06:41:46.179Z,100116.25
2023-03-06T06:44:17.989Z,100110.22
2023-03-06T06:49:32.787Z,100116.25
2023-03-06T06:51:59.760Z,100111.16
2023-03-06T06:54:27.012Z,100112.00
2023-03-06T06:56:54.094Z,100114.59
2023-03-06T06:59:23.730Z,100117.13
2023-03-06T07:01:52.179Z,100112.81
2023-03-06T07:04:24.831Z,100110.22
2023-03-06T07:06:51.595Z,100110.25
2023-03-06T07:09:22.527Z,100112.00
2023-03-06T07:11:50.009Z,100111.97
2023-03-06T07:14:19.614Z,100111.94
2023-03-06T07:16:46.264Z,100107.66
2023-03-06T07:19:13.008Z,100104.22
2023-03-06T07:21:39.723Z,100114.53
2023-03-06T07:24:06.977Z,100116.25
2023-03-06T07:26:34.838Z,100118.75
2023-03-06T07:29:02.573Z,100113.59
2023-03-06T07:31:32.449Z,100117.84
2023-03-06T07:34:04.810Z,100121.28
2023-03-06T07:36:40.538Z,100118.69
2023-03-06T07:39:17.504Z,100123.84
2023-03-06T07:41:44.537Z,100125.66
2023-03-06T07:44:11.320Z,100122.22
2023-03-06T07:46:38.272Z,100127.38
2023-03-06T07:49:04.986Z,100127.34
2023-03-06T07:51:37.191Z,100124.72
2023-03-06T07:54:04.006Z,100123.94
2023-03-06T07:56:32.732Z,100126.38
2023-03-06T07:59:02.348Z,100129.00
2023-03-06T08:01:29.378Z,100132.38
2023-03-06T08:03:56.102Z,100117.75
2023-03-06T08:06:26.146Z,100122.91
2023-03-06T08:08:57.035Z,100124.63
2023-03-06T08:11:26.431Z,100121.19
2023-03-06T08:13:54.564Z,100123.72
2023-03-06T08:16:23.114Z,100119.41
2023-03-06T08:18:49.951Z,100129.81
2023-03-06T08:21:19.335Z,100129.00
2023-03-06T08:23:47.213Z,100135.91
2023-03-06T08:26:19.845Z,100135.03
2023-03-06T08:28:46.656Z,100131.59
2023-03-06T08:31:20.940Z,100134.97
2023-03-06T08:33:47.996Z,100133.31
2023-03-06T08:36:14.748Z,100135.03
2023-03-06T08:38:55.658Z,100134.19
2023-03-06T08:41:22.664Z,100129.03
2023-03-06T08:43:49.904Z,100132.44
2023-03-06T08:46:18.831Z,100133.31
2023-03-06T08:48:47.940Z,100131.59
2023-03-06T08:51:15.240Z,100139.34
2023-03-06T08:53:44.011Z,100142.78
2023-03-06T08:56:24.254Z,100142.75
2023-03-06T08:58:51.816Z,100139.34
2023-03-06T09:01:21.856Z,100145.34
2023-03-06T09:03:49.420Z,100143.59
2023-03-06T09:06:17.676Z,100150.47
2023-03-06T09:08:44.883Z,100157.34
2023-03-06T09:11:17.594Z,100162.50
2023-03-06T09:13:44.553Z,100151.38
2023-03-06T09:16:12.019Z,100155.66
2023-03-06T09:18:42.300Z,100156.47
2023-03-06T09:21:10.047Z,100151.31
2023-03-06T09:23:39.629Z,100155.69
2023-03-06T09:26:07.515Z,100153.09
2023-03-06T09:28:39.243Z,100162.56
2023-03-06T09:31:19.673Z,100156.59
2023-03-06T09:33:50.618Z,100154.03
2023-03-06T09:36:22.623Z,100147.16
2023-03-06T09:38:50.430Z,100145.44
2023-03-06T09:41:39.649Z,100141.19
2023-03-06T09:44:14.652Z,100155.81
2023-03-06T09:47:02.930Z,100152.34
2023-03-06T09:49:32.119Z,100148.06
2023-03-06T09:52:17.722Z,100153.22
2023-03-06T09:55:20.857Z,100154.09
2023-03-06T09:58:07.110Z,100154.94
2023-03-06T10:00:36.738Z,100150.63
2023-03-06T10:03:24.884Z,100165.25
2023-03-06T10:06:00.949Z,100158.38
2023-03-06T10:08:35.564Z,100158.38
2023-03-06T10:11:08.907Z,100157.50
2023-03-06T10:13:43.869Z,100153.22
2023-03-06T10:16:26.609Z,100155.84
2023-03-06T10:18:55.585Z,100153.28
2023-03-06T10:21:57.678Z,100153.25
2023-03-06T10:24:40.984Z,100154.13
2023-03-06T10:27:34.794Z,100157.56
2023-03-06T10:30:46.299Z,100155.00
2023-03-06T10:33:25.534Z,100153.22
2023-03-06T10:35:57.106Z,100160.09
2023-03-06T10:38:26.710Z,100157.56
2023-03-06T10:41:11.698Z,100164.44
2023-03-06T10:43:43.891Z,100165.31
2023-03-06T10:46:30.843Z,100142.97
2023-03-06T10:49:06.592Z,100128.41
2023-03-06T10:51:36.683Z,100148.97
2023-03-06T10:57:25.613Z,100161.00
2023-03-06T11:00:26.641Z,100126.72
2023-03-06T11:03:47.172Z,100124.09
2023-03-06T11:09:37.188Z,100155.78
2023-03-06T11:12:38.501Z,100160.03
2023-03-06T11:15:37.203Z,100154.88
2023-03-06T11:18:34.221Z,100151.56
2023-03-06T11:21:10.745Z,100149.75
2023-03-06T11:24:08.752Z,100157.41
2023-03-06T11:26:51.370Z,100148.81
2023-03-06T11:29:38.540Z,100145.34
2023-03-06T11:32:52.690Z,100146.91
2023-03-06T11:39:15.633Z,100134.03
2023-03-06T11:42:26.085Z,100120.41
2023-03-06T11:45:13.877Z,100146.16
2023-03-06T11:48:14.885Z,100097.25
2023-03-06T11:51:27.164Z,100108.28
2023-03-06T11:54:03.339Z,100104.91
2023-03-06T11:56:58.942Z,100098.91
2023-03-06T11:59:45.278Z,100132.31
2023-03-06T12:02:38.559Z,100131.44
2023-03-06T12:05:25.469Z,100130.59
2023-03-06T12:08:29.928Z,100127.84
2023-03-06T12:14:00.941Z,100083.44
2023-03-06T12:17:03.282Z,100101.34
2023-03-06T12:20:00.944Z,100122.72
2023-03-06T12:23:02.561Z,100122.69
2023-03-06T12:25:46.756Z,100091.06
2023-03-06T12:28:42.696Z,100114.91
2023-03-06T12:31:29.345Z,100120.84
2023-03-06T12:34:15.846Z,100086.47
2023-03-06T12:37:25.355Z,100094.94
2023-03-06T12:40:22.748Z,100116.41
2023-03-06T12:43:15.070Z,100104.31
2023-03-06T12:45:56.514Z,100086.22
2023-03-06T12:48:33.045Z,100085.41
2023-03-06T12:51:08.268Z,100098.19
2023-03-06T12:53:44.502Z,100094.63
2023-03-06T12:56:19.598Z,100082.56
2023-03-06T12:59:18.662Z,100109.25
2023-03-06T13:02:26.532Z,100071.50
2023-03-06T13:05:36.726Z,100110.97
2023-03-06T13:08:12.689Z,100116.16
2023-03-06T13:10:48.709Z,100097.34
2023-03-06T13:13:41.598Z,100083.53
2023-03-06T13:16:33.800Z,100111.88
2023-03-06T13:19:18.601Z,100107.41
2023-03-06T13:22:19.457Z,100108.22
2023-03-06T13:25:03.455Z,100086.75
2023-03-06T13:27:48.621Z,100103.84
2023-03-06T13:30:36.941Z,100099.34
2023-03-06T13:33:38.300Z,100095.84
2023-03-06T13:36:17.573Z,100094.19
2023-03-06T13:38:44.377Z,100094.91
2023-03-06T13:41:24.387Z,100099.97
2023-03-06T13:43:55.905Z,100076.22
2023-03-06T13:46:30.031Z,100089.50
2023-03-06T13:49:05.812Z,100086.94
2023-03-06T13:51:36.683Z,100073.22
2023-03-06T13:54:21.813Z,100083.34
2023-03-06T13:57:12.399Z,100085.25
2023-03-06T14:00:08.336Z,100060.34
2023-03-06T14:02:58.547Z,100078.38
2023-03-06T14:05:37.360Z,100070.03
2023-03-06T14:08:15.585Z,100091.38
2023-03-06T14:10:47.300Z,100069.91
2023-03-06T14:13:38.424Z,100079.25
2023-03-06T14:16:20.288Z,100088.00
2023-03-06T14:18:49.341Z,100078.47
2023-03-06T14:21:26.598Z,100079.22
2023-03-06T14:24:05.033Z,100052.28
2023-03-06T14:26:33.887Z,100063.47
2023-03-06T14:29:02.438Z,100064.34
2023-03-06T14:31:37.619Z,100065.94
2023-03-06T14:34:07.629Z,100070.63
2023-03-06T14:36:49.277Z,100067.09
2023-03-06T14:39:33.319Z,100059.16
2023-03-06T14:42:27.132Z,100058.34
2023-03-06T14:45:20.252Z,100068.72
2023-03-06T14:47:52.439Z,100075.69
2023-03-06T14:50:30.776Z,100076.47
2023-03-06T14:53:01.828Z,100078.31
2023-03-06T14:55:30.387Z,100074.06
2023-03-06T14:58:03.085Z,100070.72
2023-03-06T15:00:46.344Z,100066.41
2023-03-06T15:03:19.493Z,100071.59
2023-03-06T15:05:47.628Z,100068.25
2023-03-06T15:08:19.436Z,100060.50
2023-03-06T15:11:02.702Z,100060.38
2023-03-06T15:13:30.708Z,100063.88
2023-03-06T15:15:59.684Z,100076.88
2023-03-06T15:18:55.155Z,100081.28
2023-03-06T15:21:26.828Z,100070.19
2023-03-06T15:23:55.833Z,100078.78
2023-03-06T15:26:31.669Z,100078.78
2023-03-06T15:29:25.014Z,100079.72
2023-03-06T15:31:52.060Z,100077.09
2023-03-06T15:34:24.973Z,100069.34
2023-03-06T15:36:54.831Z,100067.72
2023-03-06T15:39:41.322Z,100071.19
2023-03-06T15:42:25.645Z,100072.03
2023-03-06T15:45:03.651Z,100074.69
2023-03-06T15:47:30.490Z,100061.91
2023-03-06T15:49:57.584Z,100067.00
2023-03-06T15:52:24.361Z,100061.84
2023-03-06T15:54:56.828Z,100067.00
2023-03-06T15:57:31.941Z,100069.66
2023-03-06T16:00:00.925Z,100067.19
2023-03-06T16:02:27.853Z,100073.91
2023-03-06T16:04:54.915Z,100071.34
2023-03-06T16:07:24.818Z,100067.22
2023-03-06T16:09:53.389Z,100057.09
2023-03-06T16:12:21.099Z,100072.63
2023-03-06T16:14:48.955Z,100069.28
2023-03-06T16:17:16.102Z,100066.81
2023-03-06T16:19:51.693Z,100065.19
2023-03-06T16:22:21.359Z,100043.00
2023-03-06T16:24:51.095Z,100064.44
2023-03-06T16:27:23.462Z,100061.94
2023-03-06T16:29:52.381Z,100056.00
2023-03-06T16:32:19.145Z,100060.31
2023-03-06T16:34:48.952Z,100053.50
2023-03-06T16:37:17.838Z,100054.41
2023-03-06T16:39:44.626Z,100056.16
2023-03-06T16:42:11.563Z,100065.59
2023-03-06T16:44:38.245Z,100060.50
2023-03-06T16:47:12.868Z,100067.38
2023-03-06T16:49:39.657Z,100059.72
2023-03-06T16:52:11.406Z,100069.19
2023-03-06T16:54:38.248Z,100058.09
2023-03-06T16:57:05.116Z,100062.38
2023-03-06T16:59:32.041Z,100068.38
2023-03-06T17:01:58.792Z,100070.13
2023-03-06T17:04:25.624Z,100067.59
2023-03-06T17:06:53.335Z,100067.59
2023-03-06T17:09:20.076Z,100074.47
2023-03-06T17:11:46.981Z,100070.19
2023-03-06T17:14:13.834Z,100071.03
2023-03-06T17:16:46.567Z,100073.63
2023-03-06T17:19:16.656Z,100091.66
2023-03-06T17:21:44.498Z,100083.06
2023-03-06T17:24:11.019Z,100090.78
2023-03-06T17:26:37.949Z,100092.53
2023-03-06T17:29:09.484Z,100100.22
2023-03-06T17:31:40.111Z,100090.78
2023-03-06T17:34:08.274Z,100098.53
2023-03-06T17:36:35.306Z,100102.81
2023-03-06T17:39:03.381Z,100100.25
2023-03-06T17:41:30.326Z,100096.78
2023-03-06T17:44:02.082Z,100093.38
2023-03-06T17:46:32.320Z,100089.91
2023-03-06T17:48:59.204Z,100082.19
2023-03-06T17:51:26.318Z,100106.22
2023-03-06T17:53:59.327Z,100084.75
2023-03-06T17:56:27.310Z,100091.59
2023-03-06T17:58:53.907Z,100113.94
2023-03-06T18:01:33.020Z,100084.72
2023-03-06T18:04:03.007Z,100105.31
2023-03-06T18:06:39.509Z,100101.91
2023-03-06T18:09:06.806Z,100104.44
2023-03-06T18:11:33.951Z,100095.03
2023-03-06T18:14:00.914Z,100093.28
2023-03-06T18:16:27.734Z,100100.13
2023-03-06T18:18:57.272Z,100089.81
2023-03-06T18:21:24.886Z,100089.78
2023-03-06T18:23:54.333Z,100113.84
2023-03-06T18:26:26.796Z,100105.22
2023-03-06T18:28:56.485Z,100099.25
2023-03-06T18:31:26.062Z,100100.94
2023-03-06T18:33:55.380Z,100087.22
2023-03-06T18:36:28.087Z,100093.19
2023-03-06T18:38:58.759Z,100095.75
2023-03-06T18:41:26.796Z,100094.84
2023-03-06T18:43:55.979Z,100102.56
2023-03-06T18:46:24.323Z,100111.97
2023-03-06T18:48:55.155Z,100092.22
2023-03-06T18:51:22.187Z,100067.28
2023-03-06T18:53:49.232Z,100084.44
2023-03-06T18:56:19.481Z,100072.38
2023-03-06T18:58:49.306Z,100086.09
2023-03-06T19:01:16.669Z,100097.22
2023-03-06T19:03:43.780Z,100095.47
2023-03-06T19:06:17.240Z,100104.91
2023-03-06T19:08:49.353Z,100114.38
2023-03-06T19:11:25.421Z,100113.53
2023-03-06T19:13:52.463Z,100107.53
2023-03-06T19:16:31.198Z,100082.63
2023-03-06T19:19:07.109Z,100081.75
2023-03-06T19:21:34.012Z,100100.59
2023-03-06T19:24:02.544Z,100069.69
2023-03-06T19:26:29.756Z,100074.78
2023-03-06T19:28:56.878Z,100091.06
2023-03-06T19:31:27.256Z,100084.19
2023-03-06T19:33:57.809Z,100093.63
2023-03-06T19:36:28.815Z,100088.50
2023-03-06T19:38:57.509Z,100077.31
2023-03-06T19:41:26.839Z,100078.97
2023-03-06T19:43:56.706Z,100056.69
2023-03-06T19:46:26.701Z,100076.41
2023-03-06T19:49:00.603Z,100103.91
2023-03-06T19:51:28.406Z,100076.34
2023-03-06T19:53:57.061Z,100079.78
2023-03-06T19:56:27.373Z,100075.44
2023-03-06T19:59:03.590Z,100090.00
2023-03-06T20:01:31.085Z,100082.25
2023-03-06T20:03:59.547Z,100072.00
2023-03-06T20:06:35.969Z,100096.06
2023-03-06T20:09:06.673Z,100079.72
2023-03-06T20:11:36.791Z,100081.44
2023-03-06T20:14:05.885Z,100071.94
2023-03-06T20:16:33.965Z,100047.06
2023-03-06T20:19:01.863Z,100063.44
2023-03-06T20:21:33.362Z,100070.31
2023-03-06T20:24:00.089Z,100066.03
2023-03-06T20:26:29.085Z,100048.84
2023-03-06T20:28:59.427Z,100051.41
2023-03-06T20:31:30.404Z,100073.75
2023-03-06T20:34:01.109Z,100042.81
2023-03-06T20:36:37.037Z,100065.13
2023-03-06T20:39:12.171Z,100078.91
2023-03-06T20:41:39.853Z,100061.78
2023-03-06T20:44:10.680Z,100066.97
2023-03-06T20:46:55.454Z,100027.47
2023-03-06T20:49:22.435Z,100062.69
2023-03-06T20:51:56.854Z,100046.34
2023-03-06T20:54:25.763Z,100067.00
2023-03-06T20:56:55.074Z,100030.06
2023-03-06T20:59:22.600Z,100036.09
2023-03-06T21:01:52.652Z,100045.56
2023-03-06T21:04:20.589Z,100023.25
2023-03-06T21:06:47.779Z,100030.91
2023-03-06T21:09:17.872Z,100030.03
2023-03-06T21:11:50.920Z,100025.69
2023-03-06T21:14:20.285Z,100030.03
2023-03-06T21:16:47.577Z,100042.03
2023-03-06T21:19:21.855Z,100036.88
2023-03-06T21:21:48.824Z,100013.66
2023-03-06T21:24:23.329Z,100016.28
2023-03-06T21:26:52.859Z,100010.25
2023-03-06T21:29:20.842Z,100006.03
2023-03-06T21:31:47.581Z,100036.09
2023-03-06T21:34:14.550Z,99983.78
2023-03-06T21:36:45.522Z,99984.66
2023-03-06T21:39:12.778Z,99987.19
2023-03-06T21:41:40.818Z,99977.78
2023-03-06T21:44:07.862Z,100015.63
2023-03-06T21:46:35.626Z,99974.41
2023-03-06T21:49:04.643Z,99970.97
2023-03-06T21:51:37.026Z,100000.13
2023-03-06T21:54:04.344Z,99996.72
2023-03-06T21:56:33.215Z,99990.66
2023-03-06T21:59:03.343Z,99977.75
2023-03-06T22:01:31.069Z,99990.69
2023-03-06T22:04:02.310Z,99996.69
2023-03-06T22:06:31.317Z,99997.53
2023-03-06T22:08:59.878Z,100010.41
2023-03-06T22:11:31.730Z,100004.38
2023-03-06T22:13:59.218Z,99982.03
2023-03-06T22:16:26.218Z,99970.84
2023-03-06T22:18:56.397Z,99963.09
2023-03-06T22:21:26.753Z,99989.78
2023-03-06T22:23:59.641Z,99963.19
2023-03-06T22:26:39.877Z,99987.22
2023-03-06T22:29:07.053Z,99978.72
2023-03-06T22:31:33.876Z,99972.63
2023-03-06T22:34:01.436Z,99975.22
2023-03-06T22:36:33.097Z,99975.19
2023-03-06T22:39:01.861Z,99964.94
2023-03-06T22:41:29.205Z,99958.09
2023-03-06T22:43:57.878Z,99953.72
2023-03-06T22:46:25.449Z,99949.44
2023-03-06T22:48:59.848Z,99950.19
2023-03-06T22:51:27.495Z,99951.91
2023-03-06T22:54:03.389Z,99943.34
2023-03-06T22:56:30.717Z,99946.81
2023-03-06T22:58:58.573Z,99936.56
2023-03-06T23:01:34.488Z,99939.09
2023-03-06T23:04:03.217Z,99928.78
2023-03-06T23:06:36.620Z,99933.06
2023-03-06T23:09:05.980Z,99933.84
2023-03-06T23:11:35.939Z,99929.56
2023-03-06T23:14:03.188Z,99921.78
2023-03-06T23:16:34.096Z,99929.41
2023-03-06T23:19:02.010Z,99926.81
2023-03-06T23:21:29.195Z,99928.56
2023-03-06T23:24:03.458Z,99921.66
2023-03-06T23:26:39.031Z,99920.00
2023-03-06T23:29:05.691Z,99931.97
2023-03-06T23:31:34.962Z,99916.56
2023-03-06T23:34:03.968Z,99919.22
2023-03-06T23:36:34.101Z,99892.75
2023-03-06T23:39:05.473Z,99910.88
2023-03-06T23:41:35.853Z,99912.69
2023-03-06T23:44:12.187Z,99915.28
2023-03-06T23:46:39.562Z,99913.63
2023-03-06T23:49:08.064Z,99906.88
2023-03-06T23:51:38.617Z,99913.00
2023-03-06T23:54:12.547Z,99898.53
2023-03-06T23:56:39.704Z,99884.03
2023-03-06T23:59:15.546Z,99892.66
